sensor_id;sensor_type;location;lat;lon;timestamp;temperature;humidity
16032;DHT22;8120;48.308;8.914;2023-03-01T00:01:46;-5.90;90.10
16032;DHT22;8120;48.308;8.914;2023-03-01T00:04:14;-5.90;89.70
16032;DHT22;8120;48.308;8.914;2023-03-01T00:06:43;-6.00;89.40
16032;DHT22;8120;48.308;8.914;2023-03-01T00:09:12;-5.90;90.20
16032;DHT22;8120;48.308;8.914;2023-03-01T00:11:40;-5.90;90.40
16032;DHT22;8120;48.308;8.914;2023-03-01T00:14:09;-5.90;90.00
16032;DHT22;8120;48.308;8.914;2023-03-01T00:16:39;-6.00;89.50
16032;DHT22;8120;48.308;8.914;2023-03-01T00:19:12;-6.10;90.00
16032;DHT22;8120;48.308;8.914;2023-03-01T00:21:40;-6.00;90.80
16032;DHT22;8120;48.308;8.914;2023-03-01T00:24:30;-6.00;90.60
16032;DHT22;8120;48.308;8.914;2023-03-01T00:26:58;-6.10;90.70
16032;DHT22;8120;48.308;8.914;2023-03-01T00:29:25;-6.10;90.70
16032;DHT22;8120;48.308;8.914;2023-03-01T00:31:53;-6.10;90.90
16032;DHT22;8120;48.308;8.914;2023-03-01T00:34:22;-6.20;90.20
16032;DHT22;8120;48.308;8.914;2023-03-01T00:36:50;-6.20;90.20
16032;DHT22;8120;48.308;8.914;2023-03-01T00:39:18;-6.20;90.90
16032;DHT22;8120;48.308;8.914;2023-03-01T00:41:46;-6.30;91.00
16032;DHT22;8120;48.308;8.914;2023-03-01T00:44:14;-6.20;91.30
16032;DHT22;8120;48.308;8.914;2023-03-01T00:46:41;-6.20;92.00
16032;DHT22;8120;48.308;8.914;2023-03-01T00:49:09;-6.20;91.90
16032;DHT22;8120;48.308;8.914;2023-03-01T00:51:40;-6.20;91.90
16032;DHT22;8120;48.308;8.914;2023-03-01T00:54:09;-6.20;91.90
16032;DHT22;8120;48.308;8.914;2023-03-01T00:56:37;-6.20;91.60
16032;DHT22;8120;48.308;8.914;2023-03-01T00:59:05;-6.30;91.30
16032;DHT22;8120;48.308;8.914;2023-03-01T01:01:32;-6.30;91.80
16032;DHT22;8120;48.308;8.914;2023-03-01T01:04:03;-6.30;91.70
16032;DHT22;8120;48.308;8.914;2023-03-01T01:06:33;-6.40;91.40
16032;DHT22;8120;48.308;8.914;2023-03-01T01:09:02;-6.40;91.90
16032;DHT22;8120;48.308;8.914;2023-03-01T01:11:31;-6.40;92.00
16032;DHT22;8120;48.308;8.914;2023-03-01T01:14:02;-6.40;91.60
16032;DHT22;8120;48.308;8.914;2023-03-01T01:16:31;-6.40;91.40
16032;DHT22;8120;48.308;8.914;2023-03-01T01:18:59;-6.40;92.10
16032;DHT22;8120;48.308;8.914;2023-03-01T01:21:43;-6.40;91.90
16032;DHT22;8120;48.308;8.914;2023-03-01T01:24:19;-6.40;91.80
16032;DHT22;8120;48.308;8.914;2023-03-01T01:26:47;-6.30;93.00
16032;DHT22;8120;48.308;8.914;2023-03-01T01:29:15;-6.10;93.10
16032;DHT22;8120;48.308;8.914;2023-03-01T01:31:43;-6.10;92.80
16032;DHT22;8120;48.308;8.914;2023-03-01T01:34:14;-6.20;92.00
16032;DHT22;8120;48.308;8.914;2023-03-01T01:36:42;-6.20;91.70
16032;DHT22;8120;48.308;8.914;2023-03-01T01:39:10;-6.20;91.50
16032;DHT22;8120;48.308;8.914;2023-03-01T01:41:43;-6.10;92.00
16032;DHT22;8120;48.308;8.914;2023-03-01T01:44:16;-5.90;92.30
16032;DHT22;8120;48.308;8.914;2023-03-01T01:46:47;-5.70;92.30
16032;DHT22;8120;48.308;8.914;2023-03-01T01:49:23;-5.60;91.90
16032;DHT22;8120;48.308;8.914;2023-03-01T01:51:56;-5.50;90.40
16032;DHT22;8120;48.308;8.914;2023-03-01T01:54:28;-5.50;90.60
16032;DHT22;8120;48.308;8.914;2023-03-01T01:57:02;-5.30;90.60
16032;DHT22;8120;48.308;8.914;2023-03-01T01:59:32;-5.20;90.20
16032;DHT22;8120;48.308;8.914;2023-03-01T02:02:02;-5.10;89.70
16032;DHT22;8120;48.308;8.914;2023-03-01T02:04:31;-5.00;89.70
16032;DHT22;8120;48.308;8.914;2023-03-01T02:07:03;-5.00;89.00
16032;DHT22;8120;48.308;8.914;2023-03-01T02:09:33;-4.90;88.80
16032;DHT22;8120;48.308;8.914;2023-03-01T02:12:04;-4.60;89.40
16032;DHT22;8120;48.308;8.914;2023-03-01T02:14:32;-4.40;88.50
16032;DHT22;8120;48.308;8.914;2023-03-01T02:17:00;-4.30;87.30
16032;DHT22;8120;48.308;8.914;2023-03-01T02:19:38;-4.20;86.70
16032;DHT22;8120;48.308;8.914;2023-03-01T02:22:15;-4.10;86.20
16032;DHT22;8120;48.308;8.914;2023-03-01T02:24:57;-3.90;85.50
16032;DHT22;8120;48.308;8.914;2023-03-01T02:27:35;-3.90;85.30
16032;DHT22;8120;48.308;8.914;2023-03-01T02:30:07;-3.90;85.20
16032;DHT22;8120;48.308;8.914;2023-03-01T02:32:39;-3.90;85.10
16032;DHT22;8120;48.308;8.914;2023-03-01T02:35:09;-3.90;84.90
16032;DHT22;8120;48.308;8.914;2023-03-01T02:37:39;-3.90;84.90
16032;DHT22;8120;48.308;8.914;2023-03-01T02:40:10;-3.90;85.10
16032;DHT22;8120;48.308;8.914;2023-03-01T02:42:45;-3.90;85.10
16032;DHT22;8120;48.308;8.914;2023-03-01T02:45:16;-3.90;85.00
16032;DHT22;8120;48.308;8.914;2023-03-01T02:47:44;-3.90;85.40
16032;DHT22;8120;48.308;8.914;2023-03-01T02:50:22;-3.90;85.30
16032;DHT22;8120;48.308;8.914;2023-03-01T02:52:56;-3.90;85.40
16032;DHT22;8120;48.308;8.914;2023-03-01T02:55:25;-3.90;85.00
16032;DHT22;8120;48.308;8.914;2023-03-01T02:57:54;-3.80;85.10
16032;DHT22;8120;48.308;8.914;2023-03-01T03:00:27;-3.80;84.80
16032;DHT22;8120;48.308;8.914;2023-03-01T03:02:56;-3.80;85.00
16032;DHT22;8120;48.308;8.914;2023-03-01T03:05:26;-3.80;85.10
16032;DHT22;8120;48.308;8.914;2023-03-01T03:07:58;-3.80;85.20
16032;DHT22;8120;48.308;8.914;2023-03-01T03:10:28;-3.80;85.20
16032;DHT22;8120;48.308;8.914;2023-03-01T03:12:58;-3.80;85.10
16032;DHT22;8120;48.308;8.914;2023-03-01T03:15:27;-3.80;85.40
16032;DHT22;8120;48.308;8.914;2023-03-01T03:17:56;-3.80;85.30
16032;DHT22;8120;48.308;8.914;2023-03-01T03:20:32;-3.80;85.20
16032;DHT22;8120;48.308;8.914;2023-03-01T03:23:00;-3.70;85.20
16032;DHT22;8120;48.308;8.914;2023-03-01T03:25:29;-3.70;85.20
16032;DHT22;8120;48.308;8.914;2023-03-01T03:27:57;-3.70;85.10
16032;DHT22;8120;48.308;8.914;2023-03-01T03:30:29;-3.60;84.70
16032;DHT22;8120;48.308;8.914;2023-03-01T03:32:58;-3.70;84.80
16032;DHT22;8120;48.308;8.914;2023-03-01T03:35:29;-3.70;84.90
16032;DHT22;8120;48.308;8.914;2023-03-01T03:37:59;-3.70;84.90
16032;DHT22;8120;48.308;8.914;2023-03-01T03:40:32;-3.70;84.80
16032;DHT22;8120;48.308;8.914;2023-03-01T03:43:01;-3.70;84.70
16032;DHT22;8120;48.308;8.914;2023-03-01T03:45:30;-3.70;84.80
16032;DHT22;8120;48.308;8.914;2023-03-01T03:48:00;-3.70;84.80
16032;DHT22;8120;48.308;8.914;2023-03-01T03:50:28;-3.70;84.80
16032;DHT22;8120;48.308;8.914;2023-03-01T03:52:56;-3.70;84.80
16032;DHT22;8120;48.308;8.914;2023-03-01T03:55:23;-3.70;85.00
16032;DHT22;8120;48.308;8.914;2023-03-01T03:57:57;-3.70;85.00
16032;DHT22;8120;48.308;8.914;2023-03-01T04:00:28;-3.70;85.20
16032;DHT22;8120;48.308;8.914;2023-03-01T04:02:57;-3.60;84.90
16032;DHT22;8120;48.308;8.914;2023-03-01T04:05:27;-3.70;85.10
16032;DHT22;8120;48.308;8.914;2023-03-01T04:07:55;-3.60;85.10
16032;DHT22;8120;48.308;8.914;2023-03-01T04:10:30;-3.70;85.00
16032;DHT22;8120;48.308;8.914;2023-03-01T04:12:58;-3.70;85.20
16032;DHT22;8120;48.308;8.914;2023-03-01T04:15:26;-3.60;85.40
16032;DHT22;8120;48.308;8.914;2023-03-01T04:17:56;-3.60;85.10
16032;DHT22;8120;48.308;8.914;2023-03-01T04:20:26;-3.70;85.30
16032;DHT22;8120;48.308;8.914;2023-03-01T04:22:59;-3.60;85.40
16032;DHT22;8120;48.308;8.914;2023-03-01T04:25:38;-3.70;85.30
16032;DHT22;8120;48.308;8.914;2023-03-01T04:28:07;-3.60;85.80
16032;DHT22;8120;48.308;8.914;2023-03-01T04:30:35;-3.60;85.50
16032;DHT22;8120;48.308;8.914;2023-03-01T04:33:06;-3.60;85.40
16032;DHT22;8120;48.308;8.914;2023-03-01T04:35:36;-3.70;85.60
16032;DHT22;8120;48.308;8.914;2023-03-01T04:38:05;-3.60;85.50
16032;DHT22;8120;48.308;8.914;2023-03-01T04:40:33;-3.60;85.40
16032;DHT22;8120;48.308;8.914;2023-03-01T04:43:01;-3.60;85.30
16032;DHT22;8120;48.308;8.914;2023-03-01T04:45:29;-3.60;85.30
16032;DHT22;8120;48.308;8.914;2023-03-01T04:47:57;-3.50;85.30
16032;DHT22;8120;48.308;8.914;2023-03-01T04:50:26;-3.60;85.40
16032;DHT22;8120;48.308;8.914;2023-03-01T04:52:54;-3.60;85.50
16032;DHT22;8120;48.308;8.914;2023-03-01T04:55:25;-3.70;85.60
16032;DHT22;8120;48.308;8.914;2023-03-01T04:57:53;-3.70;85.70
16032;DHT22;8120;48.308;8.914;2023-03-01T05:00:22;-3.60;85.80
16032;DHT22;8120;48.308;8.914;2023-03-01T05:02:52;-3.60;85.80
16032;DHT22;8120;48.308;8.914;2023-03-01T05:05:27;-3.60;85.70
16032;DHT22;8120;48.308;8.914;2023-03-01T05:07:57;-3.60;85.90
16032;DHT22;8120;48.308;8.914;2023-03-01T05:10:26;-3.60;85.60
16032;DHT22;8120;48.308;8.914;2023-03-01T05:12:56;-3.50;85.30
16032;DHT22;8120;48.308;8.914;2023-03-01T05:15:24;-3.40;85.40
16032;DHT22;8120;48.308;8.914;2023-03-01T05:17:54;-3.50;85.00
16032;DHT22;8120;48.308;8.914;2023-03-01T05:20:22;-3.50;85.50
16032;DHT22;8120;48.308;8.914;2023-03-01T05:22:56;-3.50;85.80
16032;DHT22;8120;48.308;8.914;2023-03-01T05:25:25;-3.50;85.80
16032;DHT22;8120;48.308;8.914;2023-03-01T05:27:53;-3.50;85.60
16032;DHT22;8120;48.308;8.914;2023-03-01T05:30:21;-3.50;85.70
16032;DHT22;8120;48.308;8.914;2023-03-01T05:32:50;-3.50;85.60
16032;DHT22;8120;48.308;8.914;2023-03-01T05:35:22;-3.50;85.50
16032;DHT22;8120;48.308;8.914;2023-03-01T05:37:51;-3.50;85.50
16032;DHT22;8120;48.308;8.914;2023-03-01T05:40:21;-3.50;85.30
16032;DHT22;8120;48.308;8.914;2023-03-01T05:42:52;-3.50;85.40
16032;DHT22;8120;48.308;8.914;2023-03-01T05:45:21;-3.50;85.50
16032;DHT22;8120;48.308;8.914;2023-03-01T05:47:50;-3.50;85.60
16032;DHT22;8120;48.308;8.914;2023-03-01T05:50:20;-3.40;85.70
16032;DHT22;8120;48.308;8.914;2023-03-01T05:52:50;-3.40;85.40
16032;DHT22;8120;48.308;8.914;2023-03-01T05:55:21;-3.40;85.50
16032;DHT22;8120;48.308;8.914;2023-03-01T05:57:49;-3.40;85.60
16032;DHT22;8120;48.308;8.914;2023-03-01T06:00:19;-3.40;85.50
16032;DHT22;8120;48.308;8.914;2023-03-01T06:02:49;-3.40;85.50
16032;DHT22;8120;48.308;8.914;2023-03-01T06:05:18;-3.40;85.80
16032;DHT22;8120;48.308;8.914;2023-03-01T06:07:46;-3.40;85.70
16032;DHT22;8120;48.308;8.914;2023-03-01T06:10:15;-3.40;85.90
16032;DHT22;8120;48.308;8.914;2023-03-01T06:12:44;-3.40;86.00
16032;DHT22;8120;48.308;8.914;2023-03-01T06:15:13;-3.40;86.00
16032;DHT22;8120;48.308;8.914;2023-03-01T06:17:44;-3.40;86.20
16032;DHT22;8120;48.308;8.914;2023-03-01T06:20:14;-3.40;86.20
16032;DHT22;8120;48.308;8.914;2023-03-01T06:22:43;-3.40;86.50
16032;DHT22;8120;48.308;8.914;2023-03-01T06:25:11;-3.50;86.20
16032;DHT22;8120;48.308;8.914;2023-03-01T06:27:40;-3.40;86.30
16032;DHT22;8120;48.308;8.914;2023-03-01T06:30:12;-3.40;86.20
16032;DHT22;8120;48.308;8.914;2023-03-01T06:32:40;-3.40;86.40
16032;DHT22;8120;48.308;8.914;2023-03-01T06:35:09;-3.30;86.20
16032;DHT22;8120;48.308;8.914;2023-03-01T06:37:37;-3.30;85.90
16032;DHT22;8120;48.308;8.914;2023-03-01T06:40:07;-3.30;85.70
16032;DHT22;8120;48.308;8.914;2023-03-01T06:42:39;-3.30;85.50
16032;DHT22;8120;48.308;8.914;2023-03-01T06:45:10;-3.30;85.50
16032;DHT22;8120;48.308;8.914;2023-03-01T06:47:38;-3.30;85.60
16032;DHT22;8120;48.308;8.914;2023-03-01T06:50:06;-3.20;85.30
16032;DHT22;8120;48.308;8.914;2023-03-01T06:52:35;-3.20;85.50
16032;DHT22;8120;48.308;8.914;2023-03-01T06:55:03;-3.20;85.20
16032;DHT22;8120;48.308;8.914;2023-03-01T06:57:32;-3.10;84.90
16032;DHT22;8120;48.308;8.914;2023-03-01T06:59:59;-3.10;85.20
16032;DHT22;8120;48.308;8.914;2023-03-01T07:02:28;-3.10;84.90
16032;DHT22;8120;48.308;8.914;2023-03-01T07:04:56;-3.10;84.90
16032;DHT22;8120;48.308;8.914;2023-03-01T07:07:24;-3.10;84.70
16032;DHT22;8120;48.308;8.914;2023-03-01T07:09:52;-2.90;84.20
16032;DHT22;8120;48.308;8.914;2023-03-01T07:12:20;-3.00;84.10
16032;DHT22;8120;48.308;8.914;2023-03-01T07:14:48;-3.00;84.20
16032;DHT22;8120;48.308;8.914;2023-03-01T07:17:16;-2.90;84.40
16032;DHT22;8120;48.308;8.914;2023-03-01T07:19:46;-2.90;84.10
16032;DHT22;8120;48.308;8.914;2023-03-01T07:22:14;-2.90;83.80
16032;DHT22;8120;48.308;8.914;2023-03-01T07:24:42;-2.80;83.60
16032;DHT22;8120;48.308;8.914;2023-03-01T07:27:10;-2.70;83.50
16032;DHT22;8120;48.308;8.914;2023-03-01T07:29:37;-2.70;83.20
16032;DHT22;8120;48.308;8.914;2023-03-01T07:32:06;-2.80;83.40
16032;DHT22;8120;48.308;8.914;2023-03-01T07:34:34;-2.80;83.60
16032;DHT22;8120;48.308;8.914;2023-03-01T07:37:03;-2.70;83.40
16032;DHT22;8120;48.308;8.914;2023-03-01T07:39:31;-2.60;83.00
16032;DHT22;8120;48.308;8.914;2023-03-01T07:41:59;-2.60;82.70
16032;DHT22;8120;48.308;8.914;2023-03-01T07:44:26;-2.60;82.50
16032;DHT22;8120;48.308;8.914;2023-03-01T07:46:54;-2.50;82.70
16032;DHT22;8120;48.308;8.914;2023-03-01T07:49:24;-2.50;82.40
16032;DHT22;8120;48.308;8.914;2023-03-01T07:51:53;-2.40;82.60
16032;DHT22;8120;48.308;8.914;2023-03-01T07:54:23;-2.40;82.00
16032;DHT22;8120;48.308;8.914;2023-03-01T07:56:50;-2.40;82.00
16032;DHT22;8120;48.308;8.914;2023-03-01T07:59:18;-2.40;81.90
16032;DHT22;8120;48.308;8.914;2023-03-01T08:01:46;-2.40;81.70
16032;DHT22;8120;48.308;8.914;2023-03-01T08:04:14;-2.30;82.00
16032;DHT22;8120;48.308;8.914;2023-03-01T08:06:42;-2.30;81.60
16032;DHT22;8120;48.308;8.914;2023-03-01T08:09:09;-2.30;81.40
16032;DHT22;8120;48.308;8.914;2023-03-01T08:11:38;-2.20;81.30
16032;DHT22;8120;48.308;8.914;2023-03-01T08:14:06;-2.20;81.30
16032;DHT22;8120;48.308;8.914;2023-03-01T08:16:34;-2.20;81.50
16032;DHT22;8120;48.308;8.914;2023-03-01T08:19:04;-2.30;81.50
16032;DHT22;8120;48.308;8.914;2023-03-01T08:21:32;-2.10;81.30
16032;DHT22;8120;48.308;8.914;2023-03-01T08:24:01;-2.00;81.00
16032;DHT22;8120;48.308;8.914;2023-03-01T08:26:29;-1.90;79.80
16032;DHT22;8120;48.308;8.914;2023-03-01T08:29:00;-1.80;80.00
16032;DHT22;8120;48.308;8.914;2023-03-01T08:31:30;-1.90;80.00
16032;DHT22;8120;48.308;8.914;2023-03-01T08:34:00;-1.90;79.40
16032;DHT22;8120;48.308;8.914;2023-03-01T08:36:30;-1.80;80.00
16032;DHT22;8120;48.308;8.914;2023-03-01T08:38:59;-1.80;79.40
16032;DHT22;8120;48.308;8.914;2023-03-01T08:41:27;-1.90;79.80
16032;DHT22;8120;48.308;8.914;2023-03-01T08:43:55;-1.80;80.00
16032;DHT22;8120;48.308;8.914;2023-03-01T08:46:28;-1.80;79.00
16032;DHT22;8120;48.308;8.914;2023-03-01T08:48:56;-1.60;79.00
16032;DHT22;8120;48.308;8.914;2023-03-01T08:51:25;-1.50;78.30
16032;DHT22;8120;48.308;8.914;2023-03-01T08:53:53;-1.50;77.90
16032;DHT22;8120;48.308;8.914;2023-03-01T08:56:21;-1.40;77.70
16032;DHT22;8120;48.308;8.914;2023-03-01T08:58:49;-1.50;78.10
16032;DHT22;8120;48.308;8.914;2023-03-01T09:01:18;-1.50;78.00
16032;DHT22;8120;48.308;8.914;2023-03-01T09:03:47;-1.40;78.40
16032;DHT22;8120;48.308;8.914;2023-03-01T09:06:15;-1.20;77.20
16032;DHT22;8120;48.308;8.914;2023-03-01T09:08:45;-1.00;77.00
16032;DHT22;8120;48.308;8.914;2023-03-01T09:11:15;-1.00;76.80
16032;DHT22;8120;48.308;8.914;2023-03-01T09:13:43;-0.90;75.70
16032;DHT22;8120;48.308;8.914;2023-03-01T09:16:13;-1.00;76.10
16032;DHT22;8120;48.308;8.914;2023-03-01T09:18:43;-1.00;76.00
16032;DHT22;8120;48.308;8.914;2023-03-01T09:21:14;-0.90;75.50
16032;DHT22;8120;48.308;8.914;2023-03-01T09:23:50;-0.80;75.60
16032;DHT22;8120;48.308;8.914;2023-03-01T09:26:19;-0.60;74.90
16032;DHT22;8120;48.308;8.914;2023-03-01T09:28:51;-0.50;74.00
16032;DHT22;8120;48.308;8.914;2023-03-01T09:31:20;-0.40;73.70
16032;DHT22;8120;48.308;8.914;2023-03-01T09:33:51;-0.50;74.10
16032;DHT22;8120;48.308;8.914;2023-03-01T09:36:23;-0.50;74.00
16032;DHT22;8120;48.308;8.914;2023-03-01T09:38:52;-0.50;74.50
16032;DHT22;8120;48.308;8.914;2023-03-01T09:41:46;-0.40;73.50
16032;DHT22;8120;48.308;8.914;2023-03-01T09:44:27;-0.40;73.30
16032;DHT22;8120;48.308;8.914;2023-03-01T09:46:58;-0.40;73.90
16032;DHT22;8120;48.308;8.914;2023-03-01T09:49:28;-0.20;73.20
16032;DHT22;8120;48.308;8.914;2023-03-01T09:52:03;0.00;72.50
16032;DHT22;8120;48.308;8.914;2023-03-01T09:54:37;0.10;72.40
16032;DHT22;8120;48.308;8.914;2023-03-01T09:57:11;0.10;71.90
16032;DHT22;8120;48.308;8.914;2023-03-01T09:59:55;0.10;71.60
16032;DHT22;8120;48.308;8.914;2023-03-01T10:02:32;0.10;71.70
16032;DHT22;8120;48.308;8.914;2023-03-01T10:05:21;0.20;71.90
16032;DHT22;8120;48.308;8.914;2023-03-01T10:08:02;0.30;71.60
16032;DHT22;8120;48.308;8.914;2023-03-01T10:10:36;0.30;70.80
16032;DHT22;8120;48.308;8.914;2023-03-01T10:13:10;0.30;70.50
16032;DHT22;8120;48.308;8.914;2023-03-01T10:15:47;0.40;69.90
16032;DHT22;8120;48.308;8.914;2023-03-01T10:18:20;0.50;70.00
16032;DHT22;8120;48.308;8.914;2023-03-01T10:20:52;0.60;69.60
16032;DHT22;8120;48.308;8.914;2023-03-01T10:23:23;0.70;69.20
16032;DHT22;8120;48.308;8.914;2023-03-01T10:26:01;0.90;68.30
16032;DHT22;8120;48.308;8.914;2023-03-01T10:28:36;1.00;67.60
16032;DHT22;8120;48.308;8.914;2023-03-01T10:31:12;0.90;67.40
16032;DHT22;8120;48.308;8.914;2023-03-01T10:33:41;0.90;67.90
16032;DHT22;8120;48.308;8.914;2023-03-01T10:36:09;1.00;66.40
16032;DHT22;8120;48.308;8.914;2023-03-01T10:38:53;0.70;67.00
16032;DHT22;8120;48.308;8.914;2023-03-01T10:41:22;0.90;66.30
16032;DHT22;8120;48.308;8.914;2023-03-01T10:43:52;0.80;66.70
16032;DHT22;8120;48.308;8.914;2023-03-01T10:46:29;0.70;66.20
16032;DHT22;8120;48.308;8.914;2023-03-01T10:49:07;0.70;66.90
16032;DHT22;8120;48.308;8.914;2023-03-01T10:51:35;0.90;66.40
16032;DHT22;8120;48.308;8.914;2023-03-01T10:54:06;1.00;66.10
16032;DHT22;8120;48.308;8.914;2023-03-01T10:56:48;0.90;66.30
16032;DHT22;8120;48.308;8.914;2023-03-01T10:59:22;1.30;66.00
16032;DHT22;8120;48.308;8.914;2023-03-01T11:02:17;1.50;65.40
16032;DHT22;8120;48.308;8.914;2023-03-01T11:04:59;1.60;64.50
16032;DHT22;8120;48.308;8.914;2023-03-01T11:07:28;1.70;64.60
16032;DHT22;8120;48.308;8.914;2023-03-01T11:09:57;1.70;64.30
16032;DHT22;8120;48.308;8.914;2023-03-01T11:12:25;2.00;63.60
16032;DHT22;8120;48.308;8.914;2023-03-01T11:14:56;2.30;63.60
16032;DHT22;8120;48.308;8.914;2023-03-01T11:17:27;2.50;62.00
16032;DHT22;8120;48.308;8.914;2023-03-01T11:20:06;1.90;62.50
16032;DHT22;8120;48.308;8.914;2023-03-01T11:22:46;1.90;63.90
16032;DHT22;8120;48.308;8.914;2023-03-01T11:25:18;1.80;63.20
16032;DHT22;8120;48.308;8.914;2023-03-01T11:27:47;1.70;63.90
16032;DHT22;8120;48.308;8.914;2023-03-01T11:30:19;1.70;64.30
16032;DHT22;8120;48.308;8.914;2023-03-01T11:33:03;1.70;64.10
16032;DHT22;8120;48.308;8.914;2023-03-01T11:35:34;1.80;65.00
16032;DHT22;8120;48.308;8.914;2023-03-01T11:38:14;2.10;63.70
16032;DHT22;8120;48.308;8.914;2023-03-01T11:40:48;2.10;63.90
16032;DHT22;8120;48.308;8.914;2023-03-01T11:43:28;2.20;63.30
16032;DHT22;8120;48.308;8.914;2023-03-01T11:46:41;2.10;63.70
16032;DHT22;8120;48.308;8.914;2023-03-01T11:52:13;2.30;63.10
16032;DHT22;8120;48.308;8.914;2023-03-01T11:54:55;2.40;62.30
16032;DHT22;8120;48.308;8.914;2023-03-01T11:57:38;2.40;62.80
16032;DHT22;8120;48.308;8.914;2023-03-01T12:00:36;2.50;62.60
16032;DHT22;8120;48.308;8.914;2023-03-01T12:03:26;2.40;62.30
16032;DHT22;8120;48.308;8.914;2023-03-01T12:06:12;2.50;62.20
16032;DHT22;8120;48.308;8.914;2023-03-01T12:09:07;2.60;61.80
16032;DHT22;8120;48.308;8.914;2023-03-01T12:11:51;2.50;62.40
16032;DHT22;8120;48.308;8.914;2023-03-01T12:14:34;2.40;61.60
16032;DHT22;8120;48.308;8.914;2023-03-01T12:20:25;2.60;62.40
16032;DHT22;8120;48.308;8.914;2023-03-01T12:23:12;2.70;61.40
16032;DHT22;8120;48.308;8.914;2023-03-01T12:25:48;2.90;61.10
16032;DHT22;8120;48.308;8.914;2023-03-01T12:28:36;3.00;60.90
16032;DHT22;8120;48.308;8.914;2023-03-01T12:31:30;3.10;60.30
16032;DHT22;8120;48.308;8.914;2023-03-01T12:34:06;3.30;60.60
16032;DHT22;8120;48.308;8.914;2023-03-01T12:36:48;3.40;59.50
16032;DHT22;8120;48.308;8.914;2023-03-01T12:39:33;3.30;60.40
16032;DHT22;8120;48.308;8.914;2023-03-01T12:42:13;3.30;59.60
16032;DHT22;8120;48.308;8.914;2023-03-01T12:45:02;3.50;59.60
16032;DHT22;8120;48.308;8.914;2023-03-01T12:47:51;3.30;59.10
16032;DHT22;8120;48.308;8.914;2023-03-01T12:50:24;3.30;59.20
16032;DHT22;8120;48.308;8.914;2023-03-01T12:52:55;3.40;59.50
16032;DHT22;8120;48.308;8.914;2023-03-01T12:55:29;3.50;59.20
16032;DHT22;8120;48.308;8.914;2023-03-01T12:58:05;3.80;59.00
16032;DHT22;8120;48.308;8.914;2023-03-01T13:00:39;4.10;58.20
16032;DHT22;8120;48.308;8.914;2023-03-01T13:03:19;3.90;58.60
16032;DHT22;8120;48.308;8.914;2023-03-01T13:06:02;4.10;58.30
16032;DHT22;8120;48.308;8.914;2023-03-01T13:08:41;4.10;57.80
16032;DHT22;8120;48.308;8.914;2023-03-01T13:11:16;4.20;57.30
16032;DHT22;8120;48.308;8.914;2023-03-01T13:13:45;4.30;57.70
16032;DHT22;8120;48.308;8.914;2023-03-01T13:19:13;4.30;57.20
16032;DHT22;8120;48.308;8.914;2023-03-01T13:21:43;4.40;57.20
16032;DHT22;8120;48.308;8.914;2023-03-01T13:24:25;4.40;56.50
16032;DHT22;8120;48.308;8.914;2023-03-01T13:27:09;4.40;57.40
16032;DHT22;8120;48.308;8.914;2023-03-01T13:29:44;4.50;56.30
16032;DHT22;8120;48.308;8.914;2023-03-01T13:32:22;4.70;56.20
16032;DHT22;8120;48.308;8.914;2023-03-01T13:41:09;5.10;55.10
16032;DHT22;8120;48.308;8.914;2023-03-01T13:43:39;5.00;54.90
16032;DHT22;8120;48.308;8.914;2023-03-01T13:46:10;4.90;54.70
16032;DHT22;8120;48.308;8.914;2023-03-01T13:48:39;5.00;55.80
16032;DHT22;8120;48.308;8.914;2023-03-01T13:51:09;5.10;55.50
16032;DHT22;8120;48.308;8.914;2023-03-01T13:53:40;5.10;54.20
16032;DHT22;8120;48.308;8.914;2023-03-01T13:56:12;5.10;54.60
16032;DHT22;8120;48.308;8.914;2023-03-01T13:58:47;5.20;55.00
16032;DHT22;8120;48.308;8.914;2023-03-01T14:01:28;5.10;54.50
16032;DHT22;8120;48.308;8.914;2023-03-01T14:03:57;5.10;54.70
16032;DHT22;8120;48.308;8.914;2023-03-01T14:06:27;5.10;54.70
16032;DHT22;8120;48.308;8.914;2023-03-01T14:09:03;5.20;54.50
16032;DHT22;8120;48.308;8.914;2023-03-01T14:12:10;5.10;54.40
16032;DHT22;8120;48.308;8.914;2023-03-01T14:14:46;5.10;55.20
16032;DHT22;8120;48.308;8.914;2023-03-01T14:17:37;5.20;55.30
16032;DHT22;8120;48.308;8.914;2023-03-01T14:20:14;5.40;54.70
16032;DHT22;8120;48.308;8.914;2023-03-01T14:22:44;5.30;54.70
16032;DHT22;8120;48.308;8.914;2023-03-01T14:25:20;5.30;54.50
16032;DHT22;8120;48.308;8.914;2023-03-01T14:27:56;5.20;54.20
16032;DHT22;8120;48.308;8.914;2023-03-01T14:30:27;5.40;54.40
16032;DHT22;8120;48.308;8.914;2023-03-01T14:32:59;5.50;54.30
16032;DHT22;8120;48.308;8.914;2023-03-01T14:35:29;5.50;54.30
16032;DHT22;8120;48.308;8.914;2023-03-01T14:37:58;5.50;53.90
16032;DHT22;8120;48.308;8.914;2023-03-01T14:40:28;5.60;53.80
16032;DHT22;8120;48.308;8.914;2023-03-01T14:43:00;5.70;53.90
16032;DHT22;8120;48.308;8.914;2023-03-01T14:45:30;5.80;53.70
16032;DHT22;8120;48.308;8.914;2023-03-01T14:48:00;5.60;53.40
16032;DHT22;8120;48.308;8.914;2023-03-01T14:50:30;5.60;54.60
16032;DHT22;8120;48.308;8.914;2023-03-01T14:53:00;5.50;53.80
16032;DHT22;8120;48.308;8.914;2023-03-01T14:55:31;5.40;54.70
16032;DHT22;8120;48.308;8.914;2023-03-01T14:58:04;5.20;54.70
16032;DHT22;8120;48.308;8.914;2023-03-01T15:00:33;5.30;54.80
16032;DHT22;8120;48.308;8.914;2023-03-01T15:03:08;5.30;54.50
16032;DHT22;8120;48.308;8.914;2023-03-01T15:05:41;5.10;55.20
16032;DHT22;8120;48.308;8.914;2023-03-01T15:08:17;5.10;55.40
16032;DHT22;8120;48.308;8.914;2023-03-01T15:10:57;5.20;55.00
16032;DHT22;8120;48.308;8.914;2023-03-01T15:13:31;5.10;55.50
16032;DHT22;8120;48.308;8.914;2023-03-01T15:16:08;5.20;55.40
16032;DHT22;8120;48.308;8.914;2023-03-01T15:18:37;5.20;55.30
16032;DHT22;8120;48.308;8.914;2023-03-01T15:21:15;5.10;55.80
16032;DHT22;8120;48.308;8.914;2023-03-01T15:23:48;5.10;56.20
16032;DHT22;8120;48.308;8.914;2023-03-01T15:26:25;5.10;56.10
16032;DHT22;8120;48.308;8.914;2023-03-01T15:28:58;5.10;56.10
16032;DHT22;8120;48.308;8.914;2023-03-01T15:31:28;5.10;56.30
16032;DHT22;8120;48.308;8.914;2023-03-01T15:34:09;5.00;56.20
16032;DHT22;8120;48.308;8.914;2023-03-01T15:36:41;4.90;56.30
16032;DHT22;8120;48.308;8.914;2023-03-01T15:39:33;4.90;56.50
16032;DHT22;8120;48.308;8.914;2023-03-01T15:42:06;4.90;56.60
16032;DHT22;8120;48.308;8.914;2023-03-01T15:44:37;4.80;56.90
16032;DHT22;8120;48.308;8.914;2023-03-01T15:47:25;4.80;56.80
16032;DHT22;8120;48.308;8.914;2023-03-01T15:49:54;4.80;57.20
16032;DHT22;8120;48.308;8.914;2023-03-01T15:52:25;4.80;56.50
16032;DHT22;8120;48.308;8.914;2023-03-01T15:54:57;4.70;56.60
16032;DHT22;8120;48.308;8.914;2023-03-01T15:57:25;4.70;57.00
16032;DHT22;8120;48.308;8.914;2023-03-01T15:59:55;4.60;56.40
16032;DHT22;8120;48.308;8.914;2023-03-01T16:02:23;4.50;56.60
16032;DHT22;8120;48.308;8.914;2023-03-01T16:04:51;4.50;56.90
16032;DHT22;8120;48.308;8.914;2023-03-01T16:07:20;4.50;57.10
16032;DHT22;8120;48.308;8.914;2023-03-01T16:09:48;4.40;56.90
16032;DHT22;8120;48.308;8.914;2023-03-01T16:12:16;4.40;57.40
16032;DHT22;8120;48.308;8.914;2023-03-01T16:14:46;4.30;57.70
16032;DHT22;8120;48.308;8.914;2023-03-01T16:17:16;4.30;57.90
16032;DHT22;8120;48.308;8.914;2023-03-01T16:19:44;4.30;57.60
16032;DHT22;8120;48.308;8.914;2023-03-01T16:22:12;4.30;57.70
16032;DHT22;8120;48.308;8.914;2023-03-01T16:24:39;4.20;57.70
16032;DHT22;8120;48.308;8.914;2023-03-01T16:27:07;4.10;58.20
16032;DHT22;8120;48.308;8.914;2023-03-01T16:29:35;4.10;58.50
16032;DHT22;8120;48.308;8.914;2023-03-01T16:32:04;4.00;58.70
16032;DHT22;8120;48.308;8.914;2023-03-01T16:34:33;3.90;59.20
16032;DHT22;8120;48.308;8.914;2023-03-01T16:37:01;3.90;59.50
16032;DHT22;8120;48.308;8.914;2023-03-01T16:39:29;3.80;59.50